Terminal Aerodrome Forecast
Issued by NWS

Current Version | Previous Version | Text Only | Print | Product List | Glossary Off
Versions: 1 2 3 4 5 6 7 8 9 10 11 12 13 14 15 16 17 18 19

000
FTUS41 KILN 200100 AAA
TAFLCK
TAF AMD
KLCK 200151Z 2002/2024 23006KT P6SM VCTS SCT045CB BKN150
      TEMPO 2004/2008 3SM -TSRA BR OVC035CB
     FM200800 19003KT 5SM BR FEW015
     FM201400 23006KT P6SM SCT035
     FM201800 26008KT P6SM SCT040=

USA.gov is the U.S. government's official web portal to all federal, state and local government web resources and services.